Flight Track Log - Related Links

Times and Time Zones

All times are in EDT time to prevent confusion due to time zone crossing. See the ASQ4233 flight status page for this flight to view local times or setup timezone preferences in your user account.

Time Position Orientation Groundspeed Altitude Reporting Facility
EDT Latitude Longitude Course Direction KTS MPH feet Rate Location/Type
Tue 04:13:13 PM 35.3769 -97.6122 154° Southeast 150 173 1,900  Level Fort Worth Center
Tue 04:14:04 PM 35.3353 -97.6094 177° South 193 222 3,800 2,301 Climbing Fort Worth Center
Tue 04:14:26 PM 35.3122 -97.6094 180° South 207 238 4,700 2,000 Climbing Fort Worth Center
Tue 04:15:04 PM 35.2747 -97.5992 167° South 220 253 5,800 2,143 Climbing Fort Worth Center
Tue 04:16:04 PM 35.2039 -97.5889 173° South 245 282 8,200 2,250 Climbing Fort Worth Center
Tue 04:17:00 PM 34.9231 -97.3923 162° South  Level Estimated
Tue 04:17:04 PM 35.1225 -97.5786 174° South 271 312 10,300  Level Fort Worth Center
Tue 04:18:00 PM 34.8291 -97.3509 154° Southeast  Level Estimated
Tue 04:18:03 PM 35.0350 -97.5658 173° South 300 345 11,200  Level Fort Worth Center
Tue 04:19:04 PM 34.9389 -97.5453 170° South 332 382 12,800 1,537 Climbing Fort Worth Center
Tue 04:20:04 PM 34.8389 -97.5122 165° South 354 407 14,300 1,450 Climbing Fort Worth Center
Tue 04:21:04 PM 34.7367 -97.4817 166° South 368 423 15,700 1,300 Climbing Fort Worth Center
Tue 04:22:04 PM 34.6344 -97.4489 165° South 380 437 16,900 1,150 Climbing Fort Worth Center
Tue 04:23:04 PM 34.5258 -97.4136 165° South 386 444 18,000 1,300 Climbing Fort Worth Center
Tue 04:24:04 PM 34.4194 -97.3783 165° South 396 456 19,500 1,350 Climbing Fort Worth Center
Tue 04:25:04 PM 34.3089 -97.3481 167° South 396 456 20,700 1,200 Climbing Fort Worth Center
Tue 04:26:04 PM 34.1964 -97.3106 165° South 409 471 21,900 1,350 Climbing Fort Worth Center
Tue 04:27:04 PM 34.0814 -97.2756 166° South 419 482 23,400 1,450 Climbing Fort Worth Center
Tue 04:28:04 PM 33.9686 -97.2408 166° South 419 482 24,800 1,450 Climbing Fort Worth Center
Tue 04:29:04 PM 33.8581 -97.2058 165° South 413 475 26,300 1,450 Climbing Fort Worth Center
Tue 04:30:04 PM 33.7619 -97.1711 163° South 404 465 27,700 1,400 Climbing Fort Worth Center
Tue 04:31:04 PM 33.6431 -97.1364 166° South 396 456 29,100 1,350 Climbing Fort Worth Center
Tue 04:32:04 PM 33.5428 -97.1044 165° South 403 464 30,400 950 Climbing Fort Worth Center
Tue 04:33:04 PM 33.4194 -97.0675 166° South 415 478 31,000 300 Climbing Fort Worth Center
Tue 04:34:04 PM 33.3131 -97.0356 166° South 436 502 31,000  Level Fort Worth Center
Tue 04:35:04 PM 33.1708 -96.9917 166° South 467 537 31,000  Level Fort Worth Center
Tue 04:36:04 PM 33.0456 -96.9500 164° South 473 544 31,000  Level Fort Worth Center
Tue 04:37:04 PM 32.9200 -96.9136 166° South 466 536 31,000  Level Fort Worth Center
Tue 04:38:04 PM 32.7925 -96.8747 166° South 472 543 31,000  Level Fort Worth Center
Tue 04:39:04 PM 32.6714 -96.8828 183° South 455 524 31,000  Level Fort Worth Center
Tue 04:40:04 PM 32.5675 -96.9500 209° Southwest 422 486 31,000  Level Fort Worth Center
Tue 04:41:04 PM 32.4675 -97.0072 206° Southwest 441 507 31,000  Level Fort Worth Center
Tue 04:42:04 PM 32.3317 -96.9931 175° South 431 496 31,000  Level Fort Worth Center
Tue 04:43:04 PM 32.2144 -96.9344 157° South 442 509 31,000  Level Fort Worth Center
Tue 04:44:04 PM 32.1139 -96.8614 148° Southeast 455 524 31,000  Level Fort Worth Center
Tue 04:45:04 PM 31.9883 -96.7889 154° Southeast 464 534 31,000  Level Fort Worth Center
Tue 04:46:04 PM 31.8711 -96.7236 155° Southeast 469 540 31,000  Level Fort Worth Center
Tue 04:47:04 PM 31.7539 -96.6486 151° Southeast 469 540 31,000  Level Fort Worth Center
Tue 04:48:59 PM 31.5453 -96.5294 154° Southeast 463 533 31,000 -341 Level Houston Center
Tue 04:50:00 PM 31.4306 -96.4569 152° Southeast 462 532 30,000 -1,220 Descending Houston Center
Tue 04:51:02 PM 31.3200 -96.3883 152° Southeast 445 512 28,500 -1,645 Descending Houston Center
Tue 04:52:04 PM 31.2119 -96.3231 153° Southeast 434 499 26,600 -2,081 Descending Houston Center
Tue 04:53:06 PM 31.0922 -96.2489 152° Southeast 416 479 24,200 -2,064 Descending Houston Center
Tue 04:54:09 PM 30.9933 -96.1883 152° Southeast 401 461 22,300 -1,728 Descending Houston Center
Tue 04:55:11 PM 30.8944 -96.1283 152° Southeast 397 457 20,600 -1,742 Descending Houston Center
Tue 04:56:13 PM 30.7944 -96.0658 152° Southeast 402 463 18,700 -1,887 Descending Houston Center
Tue 04:57:15 PM 30.6825 -96.0000 153° Southeast 430 495 16,700 -2,188 Descending Houston Center
Tue 04:57:38 PM 30.6325 -95.9708 153° Southeast 423 487 15,600 -2,032 Descending Houston Center
Tue 04:58:17 PM 30.5861 -95.9411 151° Southeast 426 490 14,600 -2,129 Descending Houston Center
Tue 04:58:40 PM 30.5331 -95.9119 155° Southeast 418 481 13,400 -2,419 Descending Houston Center
Tue 04:59:19 PM 30.4681 -95.8714 152° Southeast 397 457 12,100 -1,377 Descending Houston Center
Tue 04:59:41 PM 30.4414 -95.8475 142° Southeast 327 376 12,000 -97 Descending Houston Center
Tue 05:00:21 PM 30.3994 -95.8064 140° Southeast 323 372 12,000  Level Houston Center
Tue 05:00:42 PM 30.3722 -95.7781 138° Southeast 318 366 12,000  Level Houston Center
Tue 05:01:23 PM 30.3333 -95.7375 138° Southeast 320 368 12,000 -581 Level Houston Center
Tue 05:01:44 PM 30.3050 -95.7061 136° Southeast 324 373 11,400 -1,524 Descending Houston Center
Tue 05:02:26 PM 30.2683 -95.6678 138° Southeast 320 368 10,400 -1,770 Descending Houston Center
Tue 05:02:45 PM 30.2383 -95.6389 140° Southeast 313 360 9,600 -1,935 Descending Houston Center
Tue 05:03:28 PM 30.2042 -95.6014 137° Southeast 311 358 8,400 -2,066 Descending Houston Center
Tue 05:03:46 PM 30.1781 -95.5758 140° Southeast 285 328 7,500 -1,839 Descending Houston Center
Tue 05:04:30 PM 30.1469 -95.5433 138° Southeast 282 325 6,500 -1,355 Descending Houston Center
Tue 05:04:48 PM 30.1178 -95.5131 138° Southeast 269 310 6,100 -387 Descending Houston Center
Tue 05:05:32 PM 30.1058 -95.4569 104° East 270 311 6,100  Level Houston Center
Tue 05:05:49 PM 30.1061 -95.4300 89° East 268 308 6,100  Level Houston Center
Tue 05:06:34 PM 30.1064 -95.3708 90° East 268 308 6,100 -97 Level Houston Center
Tue 05:06:51 PM 30.1064 -95.3406 90° East 274 315 6,000 -97 Descending Houston Center
Tue 05:07:36 PM 30.1069 -95.2828 89° East 273 314 6,000  Level Houston Center
Tue 05:07:52 PM 30.1067 -95.2536 91° East 273 314 6,000 -97 Level Houston Center
Tue 05:08:38 PM 30.1069 -95.2014 90° East 256 295 5,900 -581 Descending Houston Center
Tue 05:08:54 PM 30.1056 -95.1739 93° East 232 267 5,400 -1,355 Descending Houston Center
Tue 05:09:40 PM 30.1064 -95.1242 89° East 241 277 4,500 -1,672 Descending Houston Center
Tue 05:09:55 PM 30.1022 -95.0922 99° East 244 281 3,700 -1,429 Descending Houston Center
Tue 05:10:43 PM 30.0714 -95.0747 154° Southeast 236 272 3,000 -382 Descending Houston Center
Tue 05:11:45 PM 30.0242 -95.1153 217° Southwest 196 226 3,000 -97 Level Houston Center
Tue 05:12:47 PM 30.0069 -95.1669 249° West 180 207 2,800 -532 Descending Houston Center
Tue 05:13:49 PM 30.0078 -95.2239 271° West 184 212 1,900 -871 Descending Houston Center

Login

Don't have an account? Register now (free) for customized features, flight alerts, and more!